Time;durP1;ratioP1;P1;durP2;ratioP2;P2;SDS_P1;SDS_P2;PMS_P1;PMS_P2;Temp;Humidity;BMP_temperature;BMP_pressure;BME280_temperature;BME280_humidity;BME280_pressure;Samples;Min_cycle;Max_cycle;Signal;HPM_P1;HPM_P2
2023/12/19 00:02:13;;;;;;;18.90;15.30;;;;;;;6.65;98.52;100910.57;112824;243;40659;-61
2023/12/19 00:04:47;;;;;;;21.10;16.70;;;;;;;6.64;98.38;100908.91;112509;243;166157;-60
2023/12/19 00:07:21;;;;;;;26.30;16.30;;;;;;;6.66;98.27;100905.14;112855;243;39632;-62
2023/12/19 00:09:55;;;;;;;23.60;17.60;;;;;;;6.68;98.25;100895.39;112844;242;39093;-60
2023/12/19 00:12:29;;;;;;;24.70;18.30;;;;;;;6.70;98.34;100891.16;112659;241;154765;-56
2023/12/19 00:15:03;;;;;;;25.00;17.00;;;;;;;6.69;98.31;100885.51;112812;243;39495;-56
2023/12/19 00:17:37;;;;;;;23.30;16.80;;;;;;;6.69;98.42;100875.70;112680;241;155546;-56
2023/12/19 00:20:12;;;;;;;21.10;16.40;;;;;;;6.64;98.43;100863.27;112852;243;40080;-56
2023/12/19 00:22:46;;;;;;;20.20;15.60;;;;;;;6.54;98.42;100858.71;112767;241;156471;-59
2023/12/19 00:25:22;;;;;;;24.70;15.70;;;;;;;6.49;98.56;100853.63;112843;243;39162;-58
2023/12/19 00:27:56;;;;;;;24.70;16.40;;;;;;;6.53;98.55;100845.92;112771;243;40106;-58
2023/12/19 00:30:31;;;;;;;21.10;16.40;;;;;;;6.56;98.28;100849.37;112703;241;154800;-59
2023/12/19 00:33:03;;;;;;;;;;;;;;;6.56;98.34;100853.84;112853;243;39012;-56
2023/12/19 00:35:36;;;;;;;22.10;15.90;;;;;;;6.49;98.37;100845.07;112762;241;140725;-59
2023/12/19 00:38:10;;;;;;;21.10;15.90;;;;;;;6.41;98.52;100857.54;112805;243;40572;-57
2023/12/19 00:40:45;;;;;;;20.20;14.90;;;;;;;6.38;98.53;100843.15;112686;241;155812;-56
2023/12/19 00:43:19;;;;;;;21.40;15.90;;;;;;;6.32;98.69;100826.55;112809;243;39402;-55
2023/12/19 00:45:52;;;;;;;20.10;15.40;;;;;;;6.34;98.69;100828.15;112831;243;39494;-55
2023/12/19 00:48:26;;;;;;;19.70;15.10;;;;;;;6.33;98.54;100811.75;112726;242;155003;-55
2023/12/19 00:51:00;;;;;;;22.80;14.80;;;;;;;6.29;98.61;100798.75;112787;243;39238;-58
2023/12/19 00:53:34;;;;;;;19.30;14.40;;;;;;;6.21;98.73;100845.20;112778;243;39125;-59
2023/12/19 00:56:11;;;;;;;21.30;15.00;;;;;;;6.26;98.71;100851.09;112764;243;40165;-56
2023/12/19 00:58:45;;;;;;;20.90;15.70;;;;;;;6.30;98.62;100837.87;112646;241;154824;-56
2023/12/19 01:01:24;;;;;;;;;;;;;;;6.26;98.47;100831.41;112793;243;39717;-59
2023/12/19 01:03:58;;;;;;;21.10;14.30;;;;;;;6.27;98.50;100840.11;112855;243;41353;-58
2023/12/19 01:06:32;;;;;;;20.70;14.70;;;;;;;6.26;98.43;100841.50;112739;241;155675;-59
2023/12/19 01:09:06;;;;;;;22.20;15.20;;;;;;;6.29;98.37;100836.92;112773;243;39642;-58
2023/12/19 01:11:40;;;;;;;18.50;13.90;;;;;;;6.28;98.37;100822.66;112694;241;154783;-55
2023/12/19 01:14:14;;;;;;;21.90;14.10;;;;;;;6.26;98.44;100818.02;112936;243;39605;-55
2023/12/19 01:16:47;;;;;;;19.70;14.20;;;;;;;6.27;98.39;100814.91;112762;242;154754;-55
2023/12/19 01:19:21;;;;;;;20.40;13.10;;;;;;;6.25;98.19;100816.89;112858;243;39767;-56
2023/12/19 01:21:55;;;;;;;14.20;9.80;;;;;;;6.23;98.21;100812.84;112785;243;40979;-59
2023/12/19 01:24:29;;;;;;;18.00;12.70;;;;;;;6.22;98.11;100810.55;112727;242;155508;-59
2023/12/19 01:27:02;;;;;;;19.70;13.10;;;;;;;6.22;98.03;100814.36;112882;243;39826;-56
2023/12/19 01:29:36;;;;;;;18.10;12.30;;;;;;;6.20;98.02;100800.26;112694;242;154955;-57
2023/12/19 01:32:10;;;;;;;17.30;12.50;;;;;;;6.17;97.92;100805.23;112657;243;41142;-59
2023/12/19 01:34:44;;;;;;;17.60;12.10;;;;;;;6.10;97.83;100807.34;112663;241;155105;-59
2023/12/19 01:37:18;;;;;;;17.20;11.70;;;;;;;6.08;97.89;100806.29;112863;243;40590;-56
2023/12/19 01:39:52;;;;;;;16.50;11.90;;;;;;;6.09;97.98;100804.23;112826;243;39483;-56
2023/12/19 01:42:26;;;;;;;13.10;9.60;;;;;;;6.07;97.73;100803.81;112751;241;154868;-56
2023/12/19 01:45:11;;;;;;;16.40;11.50;;;;;;;6.05;97.78;100800.80;112788;243;41264;-56
2023/12/19 01:47:46;;;;;;;16.00;11.00;;;;;;;6.05;97.68;100801.38;112697;243;155431;-55
2023/12/19 01:50:20;;;;;;;18.20;11.00;;;;;;;6.09;97.68;100792.80;112867;243;39579;-55
2023/12/19 01:52:58;;;;;;;15.80;10.00;;;;;;;6.10;97.60;100774.58;112731;241;155014;-59
2023/12/19 01:55:32;;;;;;;16.70;10.90;;;;;;;6.04;97.64;100775.72;112847;243;41031;-59
2023/12/19 01:58:06;;;;;;;;;;;;;;;6.04;97.59;100772.47;112825;243;39439;-59
2023/12/19 02:00:39;;;;;;;15.50;9.70;;;;;;;6.05;97.54;100780.31;112744;241;140819;-56
2023/12/19 02:03:13;;;;;;;15.20;10.00;;;;;;;6.05;97.47;100768.45;112885;243;40602;-56
2023/12/19 02:05:51;;;;;;;14.30;9.40;;;;;;;6.06;97.26;100769.95;112796;241;154974;-57
2023/12/19 02:08:26;;;;;;;13.50;9.60;;;;;;;6.08;97.10;100756.23;112811;243;39809;-56
2023/12/19 02:11:00;;;;;;;12.20;9.20;;;;;;;6.05;97.03;100757.27;112552;243;154699;-58
2023/12/19 02:13:34;;;;;;;12.90;8.40;;;;;;;6.07;97.00;100758.25;112858;242;40040;-58
2023/12/19 02:16:09;;;;;;;11.30;8.50;;;;;;;6.08;96.93;100752.96;112847;243;40464;-56
2023/12/19 02:18:44;;;;;;;10.00;7.80;;;;;;;6.07;96.91;100743.09;112747;241;154575;-56
2023/12/19 02:21:16;;;;;;;;;;;;;;;6.08;96.51;100730.47;112803;243;39172;-59
2023/12/19 02:23:50;;;;;;;11.40;7.70;;;;;;;6.06;96.36;100726.89;112682;241;141617;-60
2023/12/19 02:26:25;;;;;;;9.60;7.80;;;;;;;5.99;96.11;100721.05;112848;243;39452;-59
2023/12/19 02:28:59;;;;;;;12.60;8.40;;;;;;;5.90;95.75;100721.84;112705;241;153907;-59
2023/12/19 02:31:33;;;;;;;12.20;7.80;;;;;;;5.77;95.71;100723.89;112816;243;40515;-59
2023/12/19 02:34:06;;;;;;;13.90;9.30;;;;;;;5.68;95.65;100729.83;112734;243;41072;-60
2023/12/19 02:36:41;;;;;;;11.90;7.40;;;;;;;5.63;95.78;100728.27;112717;241;155335;-56
2023/12/19 02:39:13;;;;;;;;;;;;;;;5.56;95.78;100726.48;112868;243;40239;-56
2023/12/19 02:41:47;;;;;;;11.30;7.80;;;;;;;5.48;95.72;100716.17;112731;243;140659;-59
2023/12/19 02:44:21;;;;;;;11.20;7.50;;;;;;;5.44;95.53;100710.73;112792;243;39353;-59
2023/12/19 02:46:55;;;;;;;10.20;7.60;;;;;;;5.37;95.85;100708.70;112655;241;154703;-56
2023/12/19 02:49:29;;;;;;;12.20;7.10;;;;;;;5.37;95.75;100709.42;112858;243;39555;-56
2023/12/19 02:52:03;;;;;;;8.90;7.00;;;;;;;5.42;96.00;100705.60;112886;242;39687;-58
2023/12/19 02:54:37;;;;;;;10.30;6.60;;;;;;;5.47;96.05;100692.23;112735;241;154552;-60
2023/12/19 02:57:11;;;;;;;10.20;7.20;;;;;;;5.53;95.88;100684.95;112763;243;40446;-58
2023/12/19 02:59:45;;;;;;;10.30;7.50;;;;;;;5.59;95.72;100681.50;112695;241;155065;-59
2023/12/19 03:02:19;;;;;;;9.30;5.90;;;;;;;5.60;95.60;100681.63;112621;243;39755;-56
2023/12/19 03:04:53;;;;;;;11.70;7.10;;;;;;;5.62;95.45;100680.86;112740;241;155147;-55
2023/12/19 03:07:26;;;;;;;10.40;7.20;;;;;;;5.61;95.35;100677.63;112790;243;40774;-59
2023/12/19 03:10:05;;;;;;;10.40;7.00;;;;;;;5.54;95.15;100674.73;112758;243;39723;-59
2023/12/19 03:12:39;;;;;;;10.10;7.00;;;;;;;5.44;95.09;100665.58;112681;241;153695;-60
2023/12/19 03:15:14;;;;;;;11.10;6.50;;;;;;;5.34;94.89;100666.65;112853;242;39942;-60
2023/12/19 03:17:48;;;;;;;9.50;6.60;;;;;;;5.25;94.77;100667.69;112544;243;154633;-56
2023/12/19 03:20:22;;;;;;;10.60;6.40;;;;;;;5.16;94.69;100657.56;112817;243;39523;-54
2023/12/19 03:22:56;;;;;;;8.50;6.50;;;;;;;5.09;94.69;100649.11;112641;243;40319;-56
2023/12/19 03:25:33;;;;;;;8.70;6.00;;;;;;;5.08;94.75;100641.71;112819;243;40421;-55
2023/12/19 03:28:07;;;;;;;8.60;5.90;;;;;;;5.06;94.65;100634.25;112806;243;41035;-55
2023/12/19 03:30:41;;;;;;;9.20;6.20;;;;;;;5.05;94.73;100632.17;112671;241;154984;-56
2023/12/19 03:33:15;;;;;;;7.60;6.10;;;;;;;5.10;94.60;100637.25;112801;243;39109;-55
2023/12/19 03:35:49;;;;;;;10.10;6.70;;;;;;;5.17;94.41;100635.36;112675;241;154040;-56
2023/12/19 03:38:23;;;;;;;10.40;6.20;;;;;;;5.18;94.46;100639.16;112679;243;40968;-55
2023/12/19 03:41:00;;;;;;;9.40;5.70;;;;;;;5.21;94.35;100629.70;112755;241;154163;-59
2023/12/19 03:43:34;;;;;;;8.80;6.40;;;;;;;5.22;94.29;100616.10;112759;243;39018;-59
2023/12/19 03:46:07;;;;;;;;;;;;;;;5.26;94.11;100626.09;112796;243;39410;-56
2023/12/19 03:48:41;;;;;;;8.10;6.00;;;;;;;5.28;94.05;100629.95;112709;241;140591;-56
2023/12/19 03:51:16;;;;;;;9.40;6.50;;;;;;;5.33;93.85;100627.14;112863;242;39413;-58
2023/12/19 03:53:50;;;;;;;9.60;6.10;;;;;;;5.34;93.93;100645.97;112676;242;155045;-58
2023/12/19 03:56:23;;;;;;;11.20;6.30;;;;;;;5.35;94.00;100646.70;112771;243;39201;-59
2023/12/19 03:58:57;;;;;;;7.50;5.00;;;;;;;5.39;93.89;100649.77;112652;241;155486;-60
2023/12/19 04:01:31;;;;;;;9.30;6.40;;;;;;;5.41;93.61;100638.11;112776;243;40150;-56
2023/12/19 04:04:09;;;;;;;10.50;7.00;;;;;;;5.42;93.49;100640.70;112809;242;41304;-56
2023/12/19 04:06:45;;;;;;;11.80;7.30;;;;;;;5.41;93.27;100632.09;112679;241;153490;-58
2023/12/19 04:09:19;;;;;;;12.30;7.40;;;;;;;5.38;92.97;100629.88;112813;243;39434;-58
2023/12/19 04:11:53;;;;;;;11.10;7.40;;;;;;;5.33;92.96;100639.61;112707;241;154631;-59
2023/12/19 04:14:27;;;;;;;10.20;7.00;;;;;;;5.28;93.02;100637.57;112853;243;40380;-59
2023/12/19 04:17:01;;;;;;;10.50;7.10;;;;;;;5.30;93.06;100640.73;112745;241;155655;-55
2023/12/19 04:19:35;;;;;;;13.00;7.60;;;;;;;5.33;92.95;100633.88;112892;243;40072;-55
2023/12/19 04:22:09;;;;;;;11.40;7.00;;;;;;;5.40;92.69;100625.38;112881;243;39913;-56
2023/12/19 04:24:43;;;;;;;13.20;6.90;;;;;;;5.43;92.49;100625.84;112733;241;154319;-56
2023/12/19 04:27:17;;;;;;;10.50;7.30;;;;;;;5.39;92.34;100627.05;112885;242;40389;-56
2023/12/19 04:29:54;;;;;;;12.50;7.70;;;;;;;5.34;92.24;100636.33;112769;241;153692;-56
2023/12/19 04:32:28;;;;;;;11.30;7.60;;;;;;;5.31;92.34;100648.71;112879;243;40356;-57
2023/12/19 04:35:02;;;;;;;9.50;6.40;;;;;;;5.34;92.40;100648.08;112725;241;155506;-56
2023/12/19 04:37:36;;;;;;;9.90;7.10;;;;;;;5.36;92.21;100644.83;112828;243;39936;-59
2023/12/19 04:40:11;;;;;;;11.30;7.10;;;;;;;5.41;91.66;100638.84;112858;243;39220;-59
2023/12/19 04:42:45;;;;;;;10.60;7.40;;;;;;;5.48;91.73;100627.64;112747;241;154179;-59
2023/12/19 04:45:19;;;;;;;11.70;7.10;;;;;;;5.51;91.58;100620.33;112824;243;38669;-59
2023/12/19 04:47:53;;;;;;;9.10;6.90;;;;;;;5.55;91.19;100626.71;112716;241;153657;-59
2023/12/19 04:50:27;;;;;;;11.30;7.00;;;;;;;5.59;91.27;100630.61;112821;243;39299;-60
2023/12/19 04:53:00;;;;;;;11.00;7.30;;;;;;;5.62;90.74;100627.83;112745;241;154419;-58
2023/12/19 04:55:34;;;;;;;11.20;7.20;;;;;;;5.67;90.58;100625.02;112835;243;40951;-59
2023/12/19 04:58:08;;;;;;;10.10;6.60;;;;;;;5.71;90.29;100621.34;112856;243;41110;-56
2023/12/19 05:00:42;;;;;;;10.90;6.90;;;;;;;5.73;90.23;100615.48;112729;241;154210;-58
2023/12/19 05:03:16;;;;;;;12.00;6.90;;;;;;;5.74;89.98;100613.89;112842;243;40136;-59
2023/12/19 05:05:51;;;;;;;11.70;7.10;;;;;;;5.77;90.01;100609.52;112703;241;153852;-57
2023/12/19 05:08:25;;;;;;;10.30;7.50;;;;;;;5.75;89.91;100603.77;112893;243;39077;-57
2023/12/19 05:10:58;;;;;;;9.00;6.60;;;;;;;5.74;89.82;100610.72;112725;241;153699;-56
2023/12/19 05:13:32;;;;;;;12.00;7.60;;;;;;;5.70;89.68;100610.76;112879;243;40428;-55
2023/12/19 05:16:16;;;;;;;8.80;6.50;;;;;;;5.68;89.53;100612.73;112867;243;39707;-58
2023/12/19 05:18:49;;;;;;;11.10;7.40;;;;;;;5.68;89.61;100619.52;112721;241;155114;-59
2023/12/19 05:21:23;;;;;;;9.90;7.00;;;;;;;5.70;89.23;100613.94;112908;243;39042;-57
2023/12/19 05:23:57;;;;;;;10.00;6.60;;;;;;;5.73;89.08;100614.36;112734;241;154930;-57
2023/12/19 05:26:31;;;;;;;10.20;6.80;;;;;;;5.78;88.70;100622.60;112890;243;39355;-60
2023/12/19 05:29:05;;;;;;;10.20;6.80;;;;;;;5.80;88.66;100622.23;112738;241;154065;-60
2023/12/19 05:31:39;;;;;;;9.90;6.60;;;;;;;5.82;88.48;100632.09;112838;242;39417;-57
2023/12/19 05:34:12;;;;;;;11.50;7.00;;;;;;;5.82;88.44;100644.77;112828;242;39445;-57
2023/12/19 05:36:47;;;;;;;11.90;7.00;;;;;;;5.81;88.24;100640.85;112723;241;153847;-60
2023/12/19 05:39:20;;;;;;;9.10;6.30;;;;;;;5.81;87.73;100630.87;112851;242;38881;-60
2023/12/19 05:41:56;;;;;;;8.70;6.50;;;;;;;5.81;87.10;100625.68;112730;241;154583;-60
2023/12/19 05:44:30;;;;;;;9.90;6.60;;;;;;;5.83;87.19;100612.61;112862;242;39731;-60
2023/12/19 05:47:04;;;;;;;11.80;6.60;;;;;;;5.86;87.36;100612.20;112722;241;153772;-60
2023/12/19 05:49:38;;;;;;;11.60;7.10;;;;;;;5.86;87.15;100608.41;112852;242;40376;-60
2023/12/19 05:52:12;;;;;;;8.80;6.20;;;;;;;5.87;86.93;100601.54;112843;242;39057;-60
2023/12/19 05:54:45;;;;;;;9.10;6.40;;;;;;;5.87;87.04;100599.77;112723;241;153325;-60
2023/12/19 05:57:19;;;;;;;11.20;7.00;;;;;;;5.86;86.63;100591.80;112893;242;39522;-57
2023/12/19 05:59:53;;;;;;;10.40;6.70;;;;;;;5.84;86.28;100589.83;112759;242;154365;-57
2023/12/19 06:02:27;;;;;;;12.60;7.10;;;;;;;5.86;86.40;100589.09;112862;242;39675;-61
2023/12/19 06:05:07;;;;;;;9.20;7.30;;;;;;;5.87;86.14;100582.59;112799;241;154185;-60
2023/12/19 06:07:41;;;;;;;10.30;6.90;;;;;;;5.88;85.76;100567.96;112882;242;39291;-60
2023/12/19 06:10:16;;;;;;;11.00;7.10;;;;;;;5.87;85.76;100575.44;112860;242;39897;-60
2023/12/19 06:12:50;;;;;;;9.20;6.70;;;;;;;5.88;85.78;100579.07;112716;241;153780;-60
2023/12/19 06:15:24;;;;;;;10.00;6.90;;;;;;;5.89;85.76;100584.58;112833;242;40801;-60
2023/12/19 06:17:58;;;;;;;9.70;6.20;;;;;;;5.87;85.50;100585.98;112714;242;154303;-57
2023/12/19 06:20:32;;;;;;;9.90;6.30;;;;;;;5.87;85.72;100579.24;112869;242;40322;-57
2023/12/19 06:23:06;;;;;;;11.50;6.50;;;;;;;5.87;85.35;100579.69;112713;241;154415;-57
2023/12/19 06:25:40;;;;;;;9.50;6.50;;;;;;;5.89;85.46;100582.04;112826;242;39967;-59
2023/12/19 06:28:16;;;;;;;12.00;7.10;;;;;;;5.90;85.12;100588.23;112869;242;39727;-60
2023/12/19 06:30:50;;;;;;;9.70;6.90;;;;;;;5.93;85.29;100594.48;112716;241;154295;-60
2023/12/19 06:33:24;;;;;;;10.20;6.80;;;;;;;5.96;85.59;100602.38;112847;242;40190;-60
2023/12/19 06:35:58;;;;;;;13.10;7.50;;;;;;;5.98;85.29;100603.34;112728;241;154377;-57
2023/12/19 06:38:33;;;;;;;11.00;7.10;;;;;;;5.99;85.33;100596.73;112853;242;39637;-57
2023/12/19 06:41:06;;;;;;;11.20;7.20;;;;;;;5.99;85.27;100599.98;112724;241;153988;-59
2023/12/19 06:43:42;;;;;;;11.70;6.80;;;;;;;5.99;85.45;100600.16;112876;242;39513;-60
2023/12/19 06:46:20;;;;;;;12.30;7.10;;;;;;;5.97;85.58;100587.84;112864;242;40992;-56
2023/12/19 06:48:54;;;;;;;11.10;6.50;;;;;;;5.97;85.40;100593.36;112715;241;154284;-56
2023/12/19 06:51:28;;;;;;;10.90;6.40;;;;;;;5.98;85.64;100594.15;112856;242;39910;-57
2023/12/19 06:54:02;;;;;;;10.30;6.60;;;;;;;6.01;85.71;100591.33;112717;241;154656;-55
2023/12/19 06:56:36;;;;;;;9.30;6.90;;;;;;;6.04;85.92;100589.64;112836;242;39104;-56
2023/12/19 06:59:11;;;;;;;15.20;8.00;;;;;;;6.10;85.59;100590.29;112685;241;153831;-56
2023/12/19 07:01:45;;;;;;;10.90;7.60;;;;;;;6.12;85.95;100583.93;112703;242;42007;-57
2023/12/19 07:04:19;;;;;;;10.30;7.30;;;;;;;6.13;85.97;100575.77;112816;242;39953;-56
2023/12/19 07:06:54;;;;;;;12.90;8.20;;;;;;;6.15;85.98;100575.42;112716;241;154766;-58
2023/12/19 07:09:28;;;;;;;11.20;7.50;;;;;;;6.15;86.27;100582.94;112847;242;39623;-60
2023/12/19 07:12:02;;;;;;;10.80;7.20;;;;;;;6.16;86.19;100589.09;112750;241;154405;-60
2023/12/19 07:14:36;;;;;;;12.50;7.30;;;;;;;6.17;86.33;100584.73;112803;242;39425;-59
2023/12/19 07:17:10;;;;;;;12.90;7.50;;;;;;;6.18;86.48;100588.67;112757;241;154859;-59
2023/12/19 07:19:47;;;;;;;9.20;6.80;;;;;;;6.21;86.56;100588.61;112868;242;39162;-58
2023/12/19 07:22:21;;;;;;;12.40;7.10;;;;;;;6.25;86.67;100583.48;112871;242;38869;-59
2023/12/19 07:24:55;;;;;;;10.10;7.30;;;;;;;6.26;86.69;100584.81;112719;241;154247;-59
2023/12/19 07:27:30;;;;;;;12.20;7.50;;;;;;;6.30;86.62;100593.52;112838;242;39902;-59
2023/12/19 07:30:05;;;;;;;12.10;7.70;;;;;;;6.33;86.53;100607.14;112742;241;154656;-59
2023/12/19 07:32:39;;;;;;;10.60;6.80;;;;;;;6.31;86.47;100608.25;112891;242;40166;-59
2023/12/19 07:35:15;;;;;;;12.30;6.90;;;;;;;6.32;86.54;100606.91;112745;241;153891;-59
2023/12/19 07:37:49;;;;;;;11.50;7.20;;;;;;;6.30;86.33;100608.01;112855;242;39586;-57
2023/12/19 07:40:23;;;;;;;10.20;7.10;;;;;;;6.30;86.43;100611.40;112841;242;39475;-57
2023/12/19 07:42:58;;;;;;;9.30;7.00;;;;;;;6.29;86.32;100602.48;112741;241;154502;-60
2023/12/19 07:45:35;;;;;;;11.40;7.20;;;;;;;6.29;86.40;100608.16;112843;242;39115;-60
2023/12/19 07:48:09;;;;;;;11.20;6.70;;;;;;;6.33;86.46;100611.69;112708;241;154426;-56
2023/12/19 07:50:44;;;;;;;10.70;7.30;;;;;;;6.36;86.49;100605.80;112867;242;40837;-57
2023/12/19 07:53:18;;;;;;;10.00;7.40;;;;;;;6.37;86.41;100606.05;112718;241;153708;-56
2023/12/19 07:55:52;;;;;;;10.40;6.90;;;;;;;6.42;86.46;100600.21;112892;242;39758;-57
2023/12/19 07:58:26;;;;;;;9.70;7.00;;;;;;;6.41;86.15;100602.77;112876;242;40123;-57
2023/12/19 08:00:58;;;;;;;;;;;;;;;6.39;86.26;100590.44;112567;241;154264;-59
2023/12/19 08:03:33;;;;;;;11.20;7.70;;;;;;;6.41;86.44;100596.84;112727;242;201155;-59
2023/12/19 08:06:08;;;;;;;12.50;7.00;;;;;;;6.43;86.37;100601.09;112716;242;157001;-56
2023/12/19 08:08:43;;;;;;;10.00;6.90;;;;;;;6.45;86.43;100589.30;112881;242;39477;-56
2023/12/19 08:11:17;;;;;;;9.60;7.30;;;;;;;6.46;86.36;100581.15;112762;241;155829;-56
2023/12/19 08:13:52;;;;;;;9.60;7.00;;;;;;;6.49;86.28;100576.17;112886;242;39014;-56
2023/12/19 08:16:26;;;;;;;12.40;7.60;;;;;;;6.54;86.24;100581.88;112855;242;39741;-60
2023/12/19 08:19:01;;;;;;;9.80;6.80;;;;;;;6.58;86.33;100579.38;112754;242;153640;-60
2023/12/19 08:21:47;;;;;;;9.40;7.00;;;;;;;6.59;86.26;100580.34;112855;242;39184;-59
2023/12/19 08:24:21;;;;;;;10.50;7.90;;;;;;;6.59;86.11;100581.83;112833;242;40570;-59
2023/12/19 08:26:55;;;;;;;10.10;7.00;;;;;;;6.63;86.21;100578.50;112857;242;40062;-57
2023/12/19 08:29:30;;;;;;;11.50;7.40;;;;;;;6.64;86.10;100584.52;112853;242;39496;-57
2023/12/19 08:32:05;;;;;;;10.10;6.60;;;;;;;6.65;85.91;100575.36;112840;242;40306;-57
2023/12/19 08:34:41;;;;;;;8.80;6.70;;;;;;;6.69;85.81;100568.13;112829;242;40238;-57
2023/12/19 08:37:16;;;;;;;10.40;7.80;;;;;;;6.76;85.72;100564.53;112731;241;154572;-59
2023/12/19 08:39:54;;;;;;;11.60;7.40;;;;;;;6.83;85.70;100561.98;112867;242;41194;-59
2023/12/19 08:42:29;;;;;;;11.70;7.30;;;;;;;6.86;85.57;100559.35;112756;241;154592;-57
2023/12/19 08:45:03;;;;;;;10.80;7.50;;;;;;;6.90;85.49;100557.29;112890;242;40909;-57
2023/12/19 08:47:36;;;;;;;10.30;7.20;;;;;;;6.90;85.43;100547.14;112765;241;154724;-57
2023/12/19 08:50:12;;;;;;;10.40;7.70;;;;;;;6.92;85.47;100551.35;112857;242;39981;-57
2023/12/19 08:52:47;;;;;;;9.50;6.50;;;;;;;6.99;85.64;100552.05;112864;242;39974;-59
2023/12/19 08:55:22;;;;;;;10.00;7.10;;;;;;;7.07;85.58;100555.33;112784;243;40988;-58
2023/12/19 08:57:56;;;;;;;9.30;6.90;;;;;;;7.08;85.23;100553.21;112824;243;39226;-58
2023/12/19 09:00:32;;;;;;;;;;;;;;;7.11;85.08;100552.58;112749;242;153692;-58
2023/12/19 09:03:06;;;;;;;8.90;6.40;;;;;;;7.14;84.94;100543.17;112863;243;38978;-55
2023/12/19 09:05:40;;;;;;;10.10;7.10;;;;;;;7.12;85.01;100541.64;112704;243;153393;-57
2023/12/19 09:08:14;;;;;;;9.00;7.20;;;;;;;7.14;85.02;100540.41;112876;243;39627;-58
2023/12/19 09:10:48;;;;;;;10.60;7.30;;;;;;;7.16;84.93;100535.62;112864;243;40690;-58
2023/12/19 09:13:23;;;;;;;8.60;7.50;;;;;;;7.17;84.92;100537.98;112888;243;39853;-58
2023/12/19 09:16:00;;;;;;;10.40;7.10;;;;;;;7.18;84.82;100540.52;112860;243;39597;-57
2023/12/19 09:18:34;;;;;;;9.20;6.90;;;;;;;7.22;84.89;100534.59;112736;242;155457;-56
2023/12/19 09:21:09;;;;;;;9.00;6.80;;;;;;;7.23;84.73;100520.49;112863;243;39963;-56
2023/12/19 09:23:43;;;;;;;9.40;6.90;;;;;;;7.28;84.78;100510.48;112712;242;153963;-57
2023/12/19 09:26:17;;;;;;;9.70;7.00;;;;;;;7.31;84.68;100515.08;112860;243;40157;-59
2023/12/19 09:28:51;;;;;;;11.70;6.90;;;;;;;7.32;84.61;100513.45;112838;243;39566;-58
2023/12/19 09:31:25;;;;;;;8.60;6.30;;;;;;;7.30;84.44;100505.39;112734;242;154225;-58
2023/12/19 09:33:59;;;;;;;8.90;6.60;;;;;;;7.28;84.37;100504.17;112852;242;40564;-58
2023/12/19 09:36:34;;;;;;;9.30;6.60;;;;;;;7.29;84.44;100512.98;112733;240;155281;-59
2023/12/19 09:39:10;;;;;;;10.70;6.10;;;;;;;7.31;84.34;100512.05;112877;242;39571;-58
2023/12/19 09:41:45;;;;;;;8.60;6.70;;;;;;;7.30;84.33;100512.87;112675;242;155522;-59
2023/12/19 09:44:19;;;;;;;9.50;6.70;;;;;;;7.33;84.29;100509.19;112847;242;39861;-59
2023/12/19 09:46:53;;;;;;;8.40;6.40;;;;;;;7.36;84.17;100510.25;112871;242;41318;-60
2023/12/19 09:49:32;;;;;;;8.60;6.40;;;;;;;7.40;84.15;100503.92;112789;243;39319;-60
2023/12/19 09:52:06;;;;;;;9.20;6.90;;;;;;;7.43;84.14;100493.38;112887;243;38263;-60
2023/12/19 09:54:41;;;;;;;11.50;6.90;;;;;;;7.49;84.04;100496.34;112733;241;154301;-60
2023/12/19 09:57:15;;;;;;;11.80;8.10;;;;;;;7.53;84.11;100495.87;112830;243;41239;-60
2023/12/19 09:59:52;;;;;;;9.60;6.90;;;;;;;7.58;83.77;100489.09;112763;241;154075;-60
2023/12/19 10:02:27;;;;;;;12.70;7.10;;;;;;;7.59;83.79;100488.85;112857;243;39516;-55
2023/12/19 10:05:02;;;;;;;8.20;6.90;;;;;;;7.61;83.97;100491.52;112727;243;154632;-56
2023/12/19 10:07:37;;;;;;;8.50;6.40;;;;;;;7.60;83.96;100488.80;112840;243;38741;-60
2023/12/19 10:10:12;;;;;;;9.20;7.30;;;;;;;7.66;84.15;100482.89;112810;243;41440;-61
2023/12/19 10:12:57;;;;;;;12.90;7.50;;;;;;;7.72;83.92;100470.61;112803;243;41023;-60
2023/12/19 10:15:32;;;;;;;9.90;7.60;;;;;;;7.78;83.97;100475.90;112888;243;40025;-61
2023/12/19 10:18:11;;;;;;;11.00;7.70;;;;;;;7.83;84.12;100485.34;112746;241;153713;-57
2023/12/19 10:20:45;;;;;;;10.60;7.40;;;;;;;7.87;84.14;100494.95;112846;243;39966;-57
2023/12/19 10:23:22;;;;;;;11.80;7.60;;;;;;;7.86;83.95;100497.98;112903;243;39911;-57
2023/12/19 10:25:56;;;;;;;9.90;7.60;;;;;;;7.83;84.03;100493.95;112871;243;39654;-58
2023/12/19 10:28:32;;;;;;;11.40;7.40;;;;;;;7.84;84.24;100487.09;112858;242;39829;-58
2023/12/19 10:31:17;;;;;;;11.60;7.70;;;;;;;7.83;84.20;100484.23;112722;241;155359;-60
2023/12/19 10:33:54;;;;;;;9.80;7.40;;;;;;;7.83;83.85;100485.73;112828;242;39814;-60
2023/12/19 10:36:29;;;;;;;8.60;7.00;;;;;;;7.85;83.91;100477.13;112708;241;154629;-59
2023/12/19 10:39:05;;;;;;;9.90;7.30;;;;;;;7.85;84.25;100475.75;112829;242;39669;-60
2023/12/19 10:41:40;;;;;;;11.40;7.30;;;;;;;7.94;84.19;100467.14;112738;241;154835;-61
2023/12/19 10:44:13;;;;;;;;;;;;;;;7.94;84.05;100452.78;112880;242;40223;-61
2023/12/19 10:46:48;;;;;;;9.20;7.30;;;;;;;7.94;84.00;100444.64;112879;242;40348;-57
2023/12/19 10:49:22;;;;;;;12.70;8.40;;;;;;;7.98;83.99;100433.66;112716;241;154298;-57
2023/12/19 10:52:04;;;;;;;11.30;7.80;;;;;;;8.01;83.95;100426.77;112880;242;40178;-57
2023/12/19 10:54:41;;;;;;;10.60;7.70;;;;;;;8.03;83.96;100407.45;112716;241;154159;-57
2023/12/19 10:57:23;;;;;;;12.50;8.00;;;;;;;8.02;83.96;100394.20;112915;242;39898;-58
2023/12/19 11:00:09;;;;;;;10.20;8.20;;;;;;;8.02;84.01;100366.89;112764;241;155041;-58
2023/12/19 11:02:53;;;;;;;8.70;7.30;;;;;;;8.07;84.02;100371.30;112866;242;40259;-57
2023/12/19 11:05:36;;;;;;;10.20;7.40;;;;;;;8.13;84.25;100380.64;112727;241;154922;-57
2023/12/19 11:08:15;;;;;;;10.20;7.70;;;;;;;8.13;84.23;100382.05;112824;242;39935;-61
2023/12/19 11:10:57;;;;;;;10.80;7.90;;;;;;;8.16;84.21;100376.84;112895;242;39604;-59
2023/12/19 11:13:33;;;;;;;9.80;7.70;;;;;;;8.20;84.20;100383.44;112724;241;154745;-60
2023/12/19 11:16:24;;;;;;;9.80;7.40;;;;;;;8.24;84.28;100392.42;112823;242;40986;-57
2023/12/19 11:19:02;;;;;;;9.90;8.60;;;;;;;8.23;84.14;100396.12;112683;241;154412;-57
2023/12/19 11:21:42;;;;;;;9.10;7.70;;;;;;;8.24;84.01;100390.14;112810;242;40784;-59
2023/12/19 11:24:25;;;;;;;11.40;7.90;;;;;;;8.25;84.28;100388.69;112731;242;155322;-59
2023/12/19 11:27:07;;;;;;;9.10;6.90;;;;;;;8.30;84.00;100382.46;112884;242;39656;-57
2023/12/19 11:29:53;;;;;;;9.10;7.10;;;;;;;8.29;83.98;100375.08;112740;241;154149;-57
2023/12/19 11:32:41;;;;;;;10.70;7.50;;;;;;;8.29;84.04;100371.48;112836;242;40201;-57
2023/12/19 11:35:16;;;;;;;10.40;7.70;;;;;;;8.29;83.96;100370.49;112750;241;154748;-56
2023/12/19 11:37:50;;;;;;;10.20;8.10;;;;;;;8.25;83.83;100360.61;112852;242;40963;-57
2023/12/19 11:40:50;;;;;;;9.70;7.60;;;;;;;8.21;83.76;100355.46;112867;242;39159;-57
2023/12/19 11:43:54;;;;;;;10.60;7.90;;;;;;;8.21;83.53;100357.78;112706;241;154598;-57
2023/12/19 11:46:29;;;;;;;9.40;7.30;;;;;;;8.18;83.77;100358.92;112882;242;39088;-61
2023/12/19 11:49:03;;;;;;;11.20;9.10;;;;;;;8.19;83.98;100366.23;112766;241;154697;-61
2023/12/19 11:51:53;;;;;;;10.70;7.80;;;;;;;8.23;83.94;100366.36;112807;242;39811;-61
2023/12/19 11:54:29;;;;;;;11.40;7.70;;;;;;;8.23;84.08;100354.14;112733;241;155520;-60
2023/12/19 11:57:06;;;;;;;10.80;8.00;;;;;;;8.20;83.94;100347.71;112834;242;40691;-60
2023/12/19 11:59:54;;;;;;;9.60;7.60;;;;;;;8.18;83.98;100351.84;112730;241;155862;-62
2023/12/19 12:02:37;;;;;;;14.30;7.90;;;;;;;8.17;84.02;100355.26;112873;242;40157;-56